createdAt,value
2022-11-05T00:00:37.657Z,11.10
2022-11-05T00:03:23.692Z,8.88
2022-11-05T00:06:29.147Z,10.55
2022-11-05T00:09:14.726Z,13.10
2022-11-05T00:12:00.114Z,10.90
2022-11-05T00:14:45.386Z,11.63
2022-11-05T00:17:12.107Z,8.95
2022-11-05T00:19:38.957Z,11.65
2022-11-05T00:22:24.132Z,11.27
2022-11-05T00:25:10.078Z,9.10
2022-11-05T00:27:36.862Z,9.60
2022-11-05T00:30:04.150Z,10.02
2022-11-05T00:32:32.951Z,9.65
2022-11-05T00:35:00.138Z,8.63
2022-11-05T00:37:29.951Z,9.48
2022-11-05T00:39:56.644Z,8.23
2022-11-05T00:42:41.925Z,8.70
2022-11-05T00:45:09.202Z,8.57
2022-11-05T00:47:54.406Z,9.27
2022-11-05T00:50:22.304Z,9.05
2022-11-05T00:52:58.106Z,9.30
2022-11-05T00:55:41.257Z,9.35
2022-11-05T00:58:16.465Z,11.25
2022-11-05T01:00:48.546Z,10.20
2022-11-05T01:03:17.084Z,9.48
2022-11-05T01:05:46.603Z,9.63
2022-11-05T01:08:14.849Z,9.60
2022-11-05T01:10:43.459Z,9.50
2022-11-05T01:13:13.413Z,9.63
2022-11-05T01:15:41.099Z,8.77
2022-11-05T01:18:08.517Z,9.57
2022-11-05T01:20:35.380Z,9.48
2022-11-05T01:23:02.147Z,8.52
2022-11-05T01:25:29.385Z,8.52
2022-11-05T01:27:56.206Z,8.73
2022-11-05T01:30:23.468Z,8.45
2022-11-05T01:32:50.395Z,8.10
2022-11-05T01:35:18.287Z,7.10
2022-11-05T01:37:45.813Z,7.95
2022-11-05T01:40:19.598Z,7.40
2022-11-05T01:42:46.625Z,6.90
2022-11-05T01:45:18.143Z,6.63
2022-11-05T01:47:49.614Z,5.47
2022-11-05T01:50:26.734Z,4.97
2022-11-05T01:53:17.286Z,4.53
2022-11-05T01:55:53.405Z,5.25
2022-11-05T01:58:23.316Z,5.00
2022-11-05T02:00:50.341Z,5.45
2022-11-05T02:03:18.125Z,6.43
2022-11-05T02:05:46.262Z,5.90
2022-11-05T02:08:21.330Z,6.43
2022-11-05T02:10:49.386Z,5.70
2022-11-05T02:13:16.176Z,5.88
2022-11-05T02:15:51.837Z,5.78
2022-11-05T02:19:06.018Z,6.13
2022-11-05T02:22:08.664Z,6.72
2022-11-05T02:24:41.319Z,6.90
2022-11-05T02:27:10.917Z,6.28
2022-11-05T02:29:54.782Z,6.43
2022-11-05T02:32:29.045Z,6.85
2022-11-05T02:35:04.244Z,5.82
2022-11-05T02:37:52.461Z,6.82
2022-11-05T02:40:48.254Z,7.25
2022-11-05T02:43:50.747Z,6.95
2022-11-05T02:46:27.865Z,6.20
2022-11-05T02:49:13.422Z,6.22
2022-11-05T02:51:45.022Z,5.53
2022-11-05T02:54:25.212Z,5.40
2022-11-05T02:56:54.430Z,5.45
2022-11-05T02:59:21.393Z,4.75
2022-11-05T03:01:49.243Z,4.43
2022-11-05T03:04:19.434Z,4.65
2022-11-05T03:07:08.588Z,4.75
2022-11-05T03:10:00.894Z,5.07
2022-11-05T03:13:03.818Z,4.95
2022-11-05T03:15:52.723Z,4.35
2022-11-05T03:18:55.956Z,3.92
2022-11-05T03:21:27.121Z,3.85
2022-11-05T03:24:02.673Z,3.75
2022-11-05T03:26:39.562Z,3.50
2022-11-05T03:29:11.473Z,3.75
2022-11-05T03:31:40.983Z,3.60
2022-11-05T03:34:09.137Z,3.47
2022-11-05T03:36:41.259Z,2.30
2022-11-05T03:39:17.425Z,1.70
2022-11-05T03:41:47.920Z,1.23
2022-11-05T03:44:22.053Z,1.30
2022-11-05T03:46:52.057Z,1.38
2022-11-05T03:49:25.384Z,0.70
2022-11-05T03:52:15.372Z,1.30
2022-11-05T03:54:42.583Z,1.00
2022-11-05T03:57:12.534Z,0.80
2022-11-05T03:59:43.217Z,0.77
2022-11-05T04:02:11.915Z,1.52
2022-11-05T04:04:39.579Z,1.77
2022-11-05T04:07:25.358Z,1.70
2022-11-05T04:10:10.840Z,2.25
2022-11-05T04:12:56.316Z,1.25
2022-11-05T04:15:25.190Z,1.95
2022-11-05T04:17:51.966Z,1.70
2022-11-05T04:20:37.345Z,1.02
2022-11-05T04:23:25.365Z,2.20
2022-11-05T04:25:52.645Z,1.65
2022-11-05T04:28:19.376Z,2.35
2022-11-05T04:30:46.124Z,1.55
2022-11-05T04:33:17.188Z,2.03
2022-11-05T04:35:46.696Z,1.15
2022-11-05T04:38:16.849Z,1.27
2022-11-05T04:40:44.699Z,0.70
2022-11-05T04:43:15.531Z,0.88
2022-11-05T04:45:43.394Z,0.68
2022-11-05T04:48:11.389Z,0.98
2022-11-05T04:50:38.468Z,1.02
2022-11-05T04:53:05.240Z,0.90
2022-11-05T04:55:32.041Z,0.73
2022-11-05T04:57:58.810Z,1.10
2022-11-05T05:00:26.193Z,1.20
2022-11-05T05:02:52.974Z,1.60
2022-11-05T05:05:19.807Z,1.63
2022-11-05T05:07:46.958Z,1.70
2022-11-05T05:10:13.791Z,1.23
2022-11-05T05:12:40.533Z,2.03
2022-11-05T05:15:07.722Z,1.80
2022-11-05T05:17:34.850Z,1.90
2022-11-05T05:20:20.119Z,1.95
2022-11-05T05:22:56.553Z,1.30
2022-11-05T05:25:23.759Z,1.70
2022-11-05T05:27:50.677Z,2.38
2022-11-05T05:30:18.452Z,2.97
2022-11-05T05:32:45.620Z,2.70
2022-11-05T05:35:12.410Z,1.90
2022-11-05T05:37:39.316Z,1.98
2022-11-05T05:40:07.126Z,2.08
2022-11-05T05:42:38.783Z,2.13
2022-11-05T05:45:08.833Z,2.40
2022-11-05T05:47:35.647Z,2.00
2022-11-05T05:50:02.529Z,1.90
2022-11-05T05:52:29.287Z,1.35
2022-11-05T05:54:56.033Z,1.90
2022-11-05T05:57:22.751Z,2.00
2022-11-05T05:59:49.470Z,2.28
2022-11-05T06:02:16.745Z,1.95
2022-11-05T06:04:43.596Z,1.77
2022-11-05T06:07:10.738Z,1.90
2022-11-05T06:09:37.482Z,1.80
2022-11-05T06:12:04.620Z,1.75
2022-11-05T06:14:31.373Z,1.50
2022-11-05T06:16:58.087Z,1.50
2022-11-05T06:19:24.810Z,1.80
2022-11-05T06:21:51.573Z,1.60
2022-11-05T06:24:18.657Z,2.40
2022-11-05T06:26:45.870Z,3.08
2022-11-05T06:29:12.593Z,3.85
2022-11-05T06:31:39.361Z,3.50
2022-11-05T06:34:06.218Z,2.53
2022-11-05T06:36:33.520Z,2.10
2022-11-05T06:39:00.898Z,4.35
2022-11-05T06:41:28.122Z,2.38
2022-11-05T06:43:55.194Z,2.95
2022-11-05T06:46:22.537Z,2.58
2022-11-05T06:48:49.377Z,2.10
2022-11-05T06:51:16.231Z,2.50
2022-11-05T06:53:43.185Z,3.33
2022-11-05T06:56:10.302Z,4.60
2022-11-05T06:58:37.607Z,3.75
2022-11-05T07:01:09.854Z,3.65
2022-11-05T07:03:39.730Z,2.78
2022-11-05T07:06:07.793Z,3.45
2022-11-05T07:08:36.426Z,3.17
2022-11-05T07:11:04.431Z,3.95
2022-11-05T07:13:31.224Z,3.25
2022-11-05T07:15:58.245Z,4.28
2022-11-05T07:18:25.536Z,3.25
2022-11-05T07:20:52.401Z,3.80
2022-11-05T07:23:19.161Z,3.10
2022-11-05T07:25:45.968Z,2.78
2022-11-05T07:28:14.404Z,2.80
2022-11-05T07:30:41.695Z,2.63
2022-11-05T07:33:15.233Z,3.50
2022-11-05T07:35:42.112Z,2.40
2022-11-05T07:38:09.614Z,1.85
2022-11-05T07:40:36.415Z,2.63
2022-11-05T07:43:04.215Z,2.72
2022-11-05T07:45:31.981Z,2.70
2022-11-05T07:48:03.525Z,3.13
2022-11-05T07:50:33.292Z,2.85
2022-11-05T07:53:05.694Z,2.80
2022-11-05T07:55:33.197Z,2.70
2022-11-05T07:58:00.007Z,2.85
2022-11-05T08:00:27.704Z,2.08
2022-11-05T08:03:14.990Z,2.10
2022-11-05T08:05:44.702Z,2.22
2022-11-05T08:08:17.255Z,2.47
2022-11-05T08:10:44.599Z,2.00
2022-11-05T08:13:13.223Z,3.00
2022-11-05T08:15:40.958Z,5.05
2022-11-05T08:18:17.773Z,4.45
2022-11-05T08:20:45.655Z,4.00
2022-11-05T08:23:12.878Z,4.22
2022-11-05T08:25:40.247Z,3.58
2022-11-05T08:28:11.040Z,3.72
2022-11-05T08:30:37.874Z,3.58
2022-11-05T08:33:07.952Z,3.30
2022-11-05T08:35:36.702Z,4.10
2022-11-05T08:38:06.681Z,4.65
2022-11-05T08:40:37.338Z,4.57
2022-11-05T08:43:06.882Z,6.80
2022-11-05T08:45:36.006Z,6.95
2022-11-05T08:48:10.257Z,7.30
2022-11-05T08:50:38.009Z,7.00
2022-11-05T08:53:05.719Z,5.80
2022-11-05T08:55:33.120Z,4.93
2022-11-05T08:58:05.545Z,4.30
2022-11-05T09:00:35.975Z,4.50
2022-11-05T09:03:05.648Z,3.95
2022-11-05T09:05:38.279Z,3.85
2022-11-05T09:08:09.890Z,4.28
2022-11-05T09:10:37.410Z,3.47
2022-11-05T09:13:04.918Z,4.20
2022-11-05T09:15:32.276Z,4.25
2022-11-05T09:17:59.818Z,4.00
2022-11-05T09:20:26.994Z,3.83
2022-11-05T09:22:54.848Z,3.70
2022-11-05T09:25:21.853Z,4.25
2022-11-05T09:27:48.796Z,4.03
2022-11-05T09:30:15.872Z,3.80
2022-11-05T09:32:42.727Z,4.15
2022-11-05T09:35:09.943Z,3.83
2022-11-05T09:37:37.642Z,4.07
2022-11-05T09:40:05.918Z,3.10
2022-11-05T09:42:39.578Z,3.30
2022-11-05T09:45:20.834Z,2.67
2022-11-05T09:47:52.533Z,2.90
2022-11-05T09:50:34.723Z,3.05
2022-11-05T09:53:01.954Z,3.45
2022-11-05T09:55:33.860Z,4.57
2022-11-05T09:58:03.665Z,3.33
2022-11-05T10:00:32.887Z,5.43
2022-11-05T10:03:05.262Z,8.10
2022-11-05T10:05:34.159Z,19.58
2022-11-05T10:08:21.355Z,7.28
2022-11-05T10:10:54.743Z,5.15
2022-11-05T10:13:35.160Z,21.90
2022-11-05T10:16:07.541Z,6.90
2022-11-05T10:18:41.123Z,6.70
2022-11-05T10:21:14.034Z,6.22
2022-11-05T10:23:40.849Z,6.30
2022-11-05T10:26:24.213Z,28.45
2022-11-05T10:28:51.699Z,37.60
2022-11-05T10:31:21.435Z,8.10
2022-11-05T10:33:50.255Z,5.60
2022-11-05T10:36:30.041Z,3.92
2022-11-05T10:39:15.310Z,3.60
2022-11-05T10:42:00.211Z,4.70
2022-11-05T10:44:37.975Z,4.57
2022-11-05T10:47:46.207Z,2.85
2022-11-05T10:50:23.062Z,2.88
2022-11-05T10:52:58.158Z,3.05
2022-11-05T10:55:44.183Z,3.92
2022-11-05T10:58:16.779Z,3.60
2022-11-05T11:00:46.049Z,4.68
2022-11-05T11:03:37.840Z,4.13
2022-11-05T11:06:23.311Z,4.55
2022-11-05T11:08:52.124Z,5.05
2022-11-05T11:11:36.893Z,4.70
2022-11-05T11:14:23.905Z,4.60
2022-11-05T11:16:53.386Z,5.45
2022-11-05T11:19:33.759Z,3.97
2022-11-05T11:22:04.062Z,3.53
2022-11-05T11:24:39.005Z,3.30
2022-11-05T11:27:14.328Z,3.38
2022-11-05T11:29:49.095Z,3.38
2022-11-05T11:32:19.589Z,3.25
2022-11-05T11:34:50.944Z,3.30
2022-11-05T11:37:22.794Z,2.42
2022-11-05T11:40:05.535Z,3.58
2022-11-05T11:42:35.523Z,3.75
2022-11-05T11:45:18.610Z,4.50
2022-11-05T11:47:48.860Z,3.78
2022-11-05T11:50:43.100Z,4.07
2022-11-05T11:53:22.068Z,4.05
2022-11-05T11:55:55.057Z,3.63
2022-11-05T11:58:54.749Z,4.35
2022-11-05T12:01:39.806Z,5.32
2022-11-05T12:04:35.807Z,4.22
2022-11-05T12:07:24.344Z,3.90
2022-11-05T12:10:00.470Z,3.22
2022-11-05T12:12:31.777Z,3.95
2022-11-05T12:15:08.294Z,4.05
2022-11-05T12:17:56.881Z,5.43
2022-11-05T12:21:03.068Z,4.78
2022-11-05T12:23:59.088Z,8.52
2022-11-05T12:26:43.678Z,5.68
2022-11-05T12:29:34.470Z,8.30
2022-11-05T12:32:22.766Z,5.70
2022-11-05T12:35:20.445Z,4.93
2022-11-05T12:37:50.106Z,3.70
2022-11-05T12:40:47.259Z,5.20
2022-11-05T12:43:23.205Z,6.60
2022-11-05T12:46:21.373Z,3.30
2022-11-05T12:49:14.137Z,3.67
2022-11-05T12:52:01.958Z,3.97
2022-11-05T12:55:11.623Z,6.10
2022-11-05T12:57:43.124Z,6.60
2022-11-05T13:00:22.187Z,6.50
2022-11-05T13:03:01.354Z,14.32
2022-11-05T13:06:06.066Z,11.15
2022-11-05T13:08:46.882Z,9.48
2022-11-05T13:11:31.766Z,8.18
2022-11-05T13:14:11.581Z,7.97
2022-11-05T13:16:43.885Z,6.88
2022-11-05T13:19:25.370Z,6.25
2022-11-05T13:22:01.373Z,5.65
2022-11-05T13:24:34.611Z,4.82
2022-11-05T13:27:05.666Z,5.32
2022-11-05T13:29:37.653Z,3.47
2022-11-05T13:32:26.240Z,6.22
2022-11-05T13:34:56.386Z,3.53
2022-11-05T13:37:53.220Z,3.20
2022-11-05T13:40:25.606Z,4.40
2022-11-05T13:43:27.158Z,4.55
2022-11-05T13:46:12.778Z,4.05
2022-11-05T13:48:42.480Z,4.80
2022-11-05T13:51:20.897Z,4.47
2022-11-05T13:53:59.725Z,4.82
2022-11-05T13:56:50.313Z,5.18
2022-11-05T13:59:57.716Z,6.28
2022-11-05T14:02:29.248Z,6.13
2022-11-05T14:05:01.341Z,4.28
2022-11-05T14:07:38.029Z,4.35
2022-11-05T14:10:30.949Z,4.30
2022-11-05T14:13:01.647Z,4.43
2022-11-05T14:15:30.564Z,4.20
2022-11-05T14:17:59.052Z,3.90
2022-11-05T14:20:41.899Z,4.03
2022-11-05T14:23:17.954Z,4.65
2022-11-05T14:25:44.652Z,4.13
2022-11-05T14:28:36.487Z,5.07
2022-11-05T14:31:41.150Z,5.55
2022-11-05T14:34:12.086Z,5.18
2022-11-05T14:36:41.237Z,5.20
2022-11-05T14:39:19.550Z,5.13
2022-11-05T14:42:19.420Z,4.82
2022-11-05T14:45:04.484Z,4.85
2022-11-05T14:47:35.828Z,4.75
2022-11-05T14:50:19.489Z,4.85
2022-11-05T14:52:55.504Z,5.10
2022-11-05T14:55:56.522Z,5.03
2022-11-05T14:58:35.353Z,4.78
2022-11-05T15:01:07.178Z,4.80
2022-11-05T15:03:45.456Z,5.07
2022-11-05T15:06:22.610Z,5.95
2022-11-05T15:08:49.362Z,6.35
2022-11-05T15:11:38.877Z,6.72
2022-11-05T15:14:16.510Z,8.60
2022-11-05T15:16:47.481Z,7.57
2022-11-05T15:19:31.469Z,7.63
2022-11-05T15:22:01.480Z,7.03
2022-11-05T15:24:28.637Z,8.52
2022-11-05T15:27:05.755Z,13.25
2022-11-05T15:29:33.405Z,9.70
2022-11-05T15:32:00.533Z,8.43
2022-11-05T15:34:30.905Z,8.50
2022-11-05T15:37:02.913Z,8.88
2022-11-05T15:39:38.309Z,9.25
2022-11-05T15:42:12.131Z,9.57
2022-11-05T15:44:50.218Z,27.90
2022-11-05T15:47:23.700Z,15.32
2022-11-05T15:49:59.664Z,12.70
2022-11-05T15:52:36.292Z,12.38
2022-11-05T15:55:12.173Z,11.25
2022-11-05T15:57:59.668Z,13.63
2022-11-05T16:00:28.900Z,13.18
2022-11-05T16:03:02.542Z,14.55
2022-11-05T16:05:33.245Z,11.30
2022-11-05T16:08:01.759Z,13.38
2022-11-05T16:10:35.243Z,13.32
2022-11-05T16:13:26.883Z,15.38
2022-11-05T16:15:56.067Z,11.00
2022-11-05T16:18:24.978Z,12.75
2022-11-05T16:21:04.815Z,16.67
2022-11-05T16:23:50.059Z,17.38
2022-11-05T16:27:00.402Z,15.40
2022-11-05T16:29:35.840Z,21.45
2022-11-05T16:32:06.312Z,15.95
2022-11-05T16:34:40.076Z,16.27
2022-11-05T16:37:12.158Z,17.33
2022-11-05T16:39:38.904Z,13.27
2022-11-05T16:42:34.314Z,14.43
2022-11-05T16:45:01.032Z,13.27
2022-11-05T16:47:28.241Z,11.40
2022-11-05T16:49:55.098Z,13.43
2022-11-05T16:52:22.006Z,19.35
2022-11-05T16:54:48.773Z,22.40
2022-11-05T16:57:27.921Z,16.83
2022-11-05T16:59:56.988Z,17.58
2022-11-05T17:02:23.925Z,16.20
2022-11-05T17:04:51.397Z,13.43
2022-11-05T17:07:18.374Z,14.13
2022-11-05T17:09:45.269Z,15.27
2022-11-05T17:12:12.520Z,11.95
2022-11-05T17:14:39.856Z,13.55
2022-11-05T17:17:06.956Z,14.75
2022-11-05T17:19:33.948Z,16.17
2022-11-05T17:22:00.742Z,20.35
2022-11-05T17:24:27.500Z,20.48
2022-11-05T17:26:54.804Z,12.15
2022-11-05T17:29:21.562Z,15.30
2022-11-05T17:31:49.005Z,15.52
2022-11-05T17:34:15.829Z,13.90
2022-11-05T17:36:42.722Z,16.33
2022-11-05T17:39:10.950Z,19.98
2022-11-05T17:41:38.362Z,18.85
2022-11-05T17:44:05.233Z,26.13
2022-11-05T17:46:32.424Z,18.90
2022-11-05T17:48:59.346Z,13.07
2022-11-05T17:51:26.090Z,20.83
2022-11-05T17:53:52.940Z,16.20
2022-11-05T17:56:30.594Z,13.10
2022-11-05T17:59:01.814Z,13.35
2022-11-05T18:01:31.438Z,24.85
2022-11-05T18:04:01.236Z,18.42
2022-11-05T18:06:32.041Z,19.17
2022-11-05T18:08:58.792Z,23.27
2022-11-05T18:11:25.594Z,10.07
2022-11-05T18:13:52.957Z,11.98
2022-11-05T18:16:20.120Z,12.13
2022-11-05T18:18:49.173Z,12.90
2022-11-05T18:21:16.424Z,16.45
2022-11-05T18:23:43.585Z,16.38
2022-11-05T18:26:15.785Z,12.82
2022-11-05T18:28:44.352Z,12.80
2022-11-05T18:31:18.344Z,12.00
2022-11-05T18:33:45.586Z,10.43
2022-11-05T18:36:19.358Z,9.30
2022-11-05T18:38:46.566Z,11.30
2022-11-05T18:41:13.535Z,9.32
2022-11-05T18:43:41.111Z,8.57
2022-11-05T18:46:07.974Z,7.32
2022-11-05T18:48:35.601Z,8.70
2022-11-05T18:51:16.297Z,7.85
2022-11-05T18:53:43.541Z,7.75
2022-11-05T18:56:16.026Z,7.65
2022-11-05T18:58:43.268Z,5.82
2022-11-05T19:01:19.190Z,9.30
2022-11-05T19:03:46.026Z,10.85
2022-11-05T19:06:14.911Z,13.77
2022-11-05T19:08:42.191Z,15.18
2022-11-05T19:11:15.165Z,18.30
2022-11-05T19:13:43.153Z,14.95
2022-11-05T19:16:13.417Z,25.55
2022-11-05T19:18:40.299Z,20.40
2022-11-05T19:21:13.491Z,13.57
2022-11-05T19:23:40.361Z,16.42
2022-11-05T19:26:09.331Z,15.77
2022-11-05T19:28:36.379Z,15.13
2022-11-05T19:31:04.168Z,11.32
2022-11-05T19:33:31.652Z,8.60
2022-11-05T19:35:58.761Z,9.88
2022-11-05T19:38:26.210Z,9.43
2022-11-05T19:40:53.406Z,10.88
2022-11-05T19:43:20.550Z,13.77
2022-11-05T19:45:47.329Z,7.55
2022-11-05T19:48:19.011Z,7.20
2022-11-05T19:50:46.805Z,6.13
2022-11-05T19:53:13.554Z,10.00
2022-11-05T19:55:41.605Z,10.10
2022-11-05T19:58:09.064Z,8.52
2022-11-05T20:00:36.699Z,9.20
2022-11-05T20:03:03.997Z,8.10
2022-11-05T20:05:32.134Z,7.95
2022-11-05T20:07:58.933Z,14.00
2022-11-05T20:10:26.172Z,9.52
2022-11-05T20:12:52.991Z,9.73
2022-11-05T20:15:19.911Z,8.65
2022-11-05T20:17:52.192Z,8.38
2022-11-05T20:20:20.061Z,9.75
2022-11-05T20:22:46.989Z,10.73
2022-11-05T20:25:13.823Z,9.63
2022-11-05T20:27:40.699Z,10.65
2022-11-05T20:30:08.312Z,12.07
2022-11-05T20:32:35.539Z,10.35
2022-11-05T20:35:02.301Z,34.75
2022-11-05T20:37:29.061Z,12.20
2022-11-05T20:39:55.809Z,18.65
2022-11-05T20:42:22.976Z,10.70
2022-11-05T20:44:49.927Z,13.90
2022-11-05T20:47:16.744Z,11.65
2022-11-05T20:49:43.546Z,15.93
2022-11-05T20:52:10.329Z,22.88
2022-11-05T20:54:37.078Z,12.30
2022-11-05T20:57:04.318Z,11.13
2022-11-05T20:59:31.031Z,15.93
2022-11-05T21:01:57.820Z,9.85
2022-11-05T21:04:24.658Z,10.65
2022-11-05T21:06:51.397Z,12.65
2022-11-05T21:09:18.557Z,12.95
2022-11-05T21:12:03.918Z,11.48
2022-11-05T21:14:30.722Z,10.75
2022-11-05T21:16:57.502Z,9.75
2022-11-05T21:19:24.928Z,9.90
2022-11-05T21:21:51.674Z,9.32
2022-11-05T21:24:18.444Z,9.95
2022-11-05T21:26:45.221Z,9.90
2022-11-05T21:29:12.113Z,9.02
2022-11-05T21:31:39.891Z,9.32
2022-11-05T21:34:06.689Z,8.02
2022-11-05T21:36:33.653Z,8.23
2022-11-05T21:39:00.860Z,7.50
2022-11-05T21:41:27.801Z,8.57
2022-11-05T21:43:54.570Z,8.48
2022-11-05T21:46:21.475Z,8.85
2022-11-05T21:48:48.361Z,9.02
2022-11-05T21:51:51.136Z,8.95
2022-11-05T21:54:36.518Z,7.82
2022-11-05T21:57:22.002Z,7.88
2022-11-05T21:59:49.052Z,8.50
2022-11-05T22:02:21.549Z,8.32
2022-11-05T22:04:53.673Z,7.32
2022-11-05T22:07:26.197Z,7.70
2022-11-05T22:09:53.301Z,7.72
2022-11-05T22:12:20.298Z,5.63
2022-11-05T22:14:47.304Z,5.18
2022-11-05T22:17:15.224Z,8.77
2022-11-05T22:19:42.039Z,8.50
2022-11-05T22:22:09.017Z,11.25
2022-11-05T22:24:36.656Z,9.50
2022-11-05T22:27:07.388Z,11.23
2022-11-05T22:29:37.038Z,8.48
2022-11-05T22:32:05.511Z,6.40
2022-11-05T22:34:32.909Z,6.35
2022-11-05T22:36:59.730Z,5.65
2022-11-05T22:39:26.541Z,5.85
2022-11-05T22:41:56.189Z,5.15
2022-11-05T22:44:24.562Z,5.07
2022-11-05T22:46:51.412Z,4.68
2022-11-05T22:49:18.838Z,4.55
2022-11-05T22:51:46.429Z,5.28
2022-11-05T22:54:13.524Z,4.60
2022-11-05T22:56:42.405Z,4.55
2022-11-05T22:59:13.632Z,4.72
2022-11-05T23:01:41.354Z,11.13
2022-11-05T23:04:08.948Z,7.20
2022-11-05T23:06:54.706Z,6.78
2022-11-05T23:09:43.079Z,5.57
2022-11-05T23:12:24.399Z,4.78
2022-11-05T23:14:51.836Z,6.65
2022-11-05T23:17:37.240Z,6.53
2022-11-05T23:20:29.518Z,4.97
2022-11-05T23:23:16.069Z,5.28
2022-11-05T23:25:43.382Z,4.45
2022-11-05T23:28:11.710Z,6.78
2022-11-05T23:31:01.643Z,4.78
2022-11-05T23:33:32.414Z,5.55
2022-11-05T23:36:17.432Z,4.63
2022-11-05T23:38:44.801Z,3.97
2022-11-05T23:41:30.853Z,4.05
2022-11-05T23:44:16.753Z,3.42
2022-11-05T23:47:02.451Z,3.65
2022-11-05T23:49:29.373Z,3.67
2022-11-05T23:51:56.568Z,4.03
2022-11-05T23:54:23.362Z,4.07
2022-11-05T23:56:50.106Z,3.78
2022-11-05T23:59:16.848Z,3.53
